Main page
METAR-TAF:

METAR-TAF

Airports :

Gällivare Lapland Airport

Gällivare, Sweden

latitude: 67-09N, longitude: 020-39E, elevation: 359 m

Current weather observation

The report was made 43 minutes ago, at 04:50 UTC
Wind 9 kt from the Southwest, varying between South and West
Temperature 8°C
Humidity 61%
Pressure 1012 hPa
Visibility 10 km or more

METAR: ESNG 210450Z AUTO 23009KT 190V270 9999 FEW160/// 08/01 Q1012

Time: 07:33 (05:33 UTC)


TAF: missing

Weather observations and forecasts of more than 4000 airports (METAR and TAF reports).

The available stations are represented by yellow and red dots on the map.

Hover mouse over dot to see the name of the station.

Then click to see weather observations and forecasts.

To change the map : click on the green buttons with a black cross to zoom in, on the green button with a dash to zoom out, or on the green arrows for adjacent maps.


METAR-TAF: